Time;durP1;ratioP1;P1;durP2;ratioP2;P2;SDS_P1;SDS_P2;PMS_P1;PMS_P2;Temp;Humidity;BMP_temperature;BMP_pressure;BME280_temperature;BME280_humidity;BME280_pressure;Samples;Min_cycle;Max_cycle;Signal;HPM_P1;HPM_P2
2022/01/29 00:00:51;;;;;;;22.17;9.02;;;7.00;99.90;;;;;;5069926;28;20040;-80
2022/01/29 00:03:17;;;;;;;19.08;9.32;;;7.00;99.90;;;;;;5060941;28;20098;-79
2022/01/29 00:05:43;;;;;;;23.67;8.73;;;7.00;99.90;;;;;;5070273;28;20068;-78
2022/01/29 00:08:09;;;;;;;22.38;9.25;;;7.00;99.90;;;;;;5055201;28;20048;-79
2022/01/29 00:10:35;;;;;;;18.73;8.07;;;7.10;99.90;;;;;;5054480;28;20049;-79
2022/01/29 00:13:01;;;;;;;26.40;8.80;;;7.10;99.90;;;;;;5085989;28;20495;-78
2022/01/29 00:15:26;;;;;;;22.50;9.23;;;7.20;99.90;;;;;;5098218;28;20076;-79
2022/01/29 00:17:52;;;;;;;23.10;8.98;;;7.20;99.90;;;;;;5059149;28;20805;-78
2022/01/29 00:20:18;;;;;;;24.35;9.55;;;7.20;99.90;;;;;;5066539;28;20036;-79
2022/01/29 00:22:43;;;;;;;18.88;8.98;;;7.20;99.90;;;;;;5063029;28;20048;-79
2022/01/29 00:25:10;;;;;;;20.05;8.45;;;7.20;99.90;;;;;;5060163;28;20049;-79
2022/01/29 00:27:36;;;;;;;;;;;7.30;99.90;;;;;;5069250;28;20033;-79
2022/01/29 00:30:08;;;;;;;21.95;8.88;;;7.30;99.90;;;;;;5046097;28;20373;-79
2022/01/29 00:32:34;;;;;;;22.60;8.82;;;7.20;99.90;;;;;;5038466;28;20460;-79
2022/01/29 00:35:00;;;;;;;22.77;8.90;;;7.20;99.90;;;;;;5070994;28;20124;-79
2022/01/29 00:37:25;;;;;;;19.85;8.77;;;7.20;99.90;;;;;;5042131;28;20153;-80
2022/01/29 00:39:51;;;;;;;20.02;8.60;;;7.20;99.90;;;;;;5064671;28;20045;-79
2022/01/29 00:42:17;;;;;;;23.25;9.48;;;7.10;99.90;;;;;;5056061;28;20097;-79
2022/01/29 00:44:44;;;;;;;17.30;8.55;;;7.10;99.90;;;;;;5061792;28;20049;-80
2022/01/29 00:47:09;;;;;;;17.73;8.75;;;7.10;99.90;;;;;;5070586;28;20098;-79
2022/01/29 00:49:35;;;;;;;21.58;8.95;;;7.10;99.90;;;;;;5067017;28;20044;-79
2022/01/29 00:52:01;;;;;;;16.55;8.90;;;7.20;99.90;;;;;;5049323;28;20111;-79
2022/01/29 00:54:27;;;;;;;20.98;8.80;;;7.20;99.90;;;;;;5072449;28;20041;-79
2022/01/29 00:56:52;;;;;;;18.17;9.35;;;7.20;99.90;;;;;;5053863;28;20052;-79
2022/01/29 00:59:18;;;;;;;17.13;8.98;;;7.20;99.90;;;;;;5053273;28;20136;-79
2022/01/29 01:01:44;;;;;;;19.02;9.43;;;7.30;99.90;;;;;;5062449;28;20071;-78
2022/01/29 01:04:09;;;;;;;23.83;9.00;;;7.30;99.90;;;;;;5052648;28;20373;-79
2022/01/29 01:06:35;;;;;;;21.05;9.10;;;7.30;99.90;;;;;;5040418;28;20043;-78
2022/01/29 01:09:01;;;;;;;18.08;9.57;;;7.40;99.90;;;;;;5066691;28;20032;-79
2022/01/29 01:11:26;;;;;;;22.77;10.18;;;7.40;99.90;;;;;;5066820;28;20036;-79
2022/01/29 01:13:52;;;;;;;24.48;9.93;;;7.30;99.90;;;;;;5055781;28;20124;-79
2022/01/29 01:16:18;;;;;;;20.75;8.95;;;7.40;99.90;;;;;;5050841;28;20400;-78
2022/01/29 01:18:43;;;;;;;27.67;10.57;;;7.40;99.90;;;;;;5067263;28;20048;-78
2022/01/29 01:21:09;;;;;;;20.45;9.60;;;7.40;99.90;;;;;;5061826;28;20048;-78
2022/01/29 01:23:35;;;;;;;22.85;10.27;;;7.50;99.90;;;;;;5061116;28;20044;-78
2022/01/29 01:26:02;;;;;;;23.58;10.48;;;7.40;99.90;;;;;;5040833;28;20045;-78
2022/01/29 01:28:28;;;;;;;19.90;10.27;;;7.50;99.90;;;;;;5038387;28;20118;-78
2022/01/29 01:30:53;;;;;;;27.77;11.00;;;7.50;99.90;;;;;;5035231;28;20488;-78
2022/01/29 01:33:20;;;;;;;25.40;10.63;;;7.50;99.90;;;;;;5049454;28;20051;-78
2022/01/29 01:35:50;;;;;;;24.38;10.05;;;7.50;99.90;;;;;;5062103;28;20122;-78
2022/01/29 01:40:51;;;;;;;30.10;12.25;;;7.50;99.90;;;;;;5071355;28;20141;-78
2022/01/29 01:43:16;;;;;;;26.15;10.98;;;7.60;99.90;;;;;;5082486;28;20491;-79
2022/01/29 01:45:43;;;;;;;30.15;11.82;;;7.60;99.90;;;;;;5068884;28;20076;-79
2022/01/29 01:48:09;;;;;;;23.70;12.00;;;7.50;99.90;;;;;;5065916;28;20082;-79
2022/01/29 01:50:35;;;;;;;23.60;11.52;;;7.60;99.90;;;;;;5070211;28;20124;-79
2022/01/29 01:53:01;;;;;;;;;;;7.60;99.90;;;;;;5069635;28;20041;-78
2022/01/29 01:55:28;;;;;;;20.55;10.48;;;7.60;99.90;;;;;;5051370;28;19916;-78
2022/01/29 01:57:54;;;;;;;30.85;12.00;;;7.60;99.90;;;;;;5050239;28;20061;-78
2022/01/29 02:00:20;;;;;;;28.42;11.30;;;7.60;99.90;;;;;;5055312;28;20434;-77
2022/01/29 02:02:46;;;;;;;24.35;11.52;;;7.70;99.90;;;;;;5055534;28;20137;-78
2022/01/29 02:05:12;;;;;;;24.45;10.65;;;7.70;99.90;;;;;;5065244;28;20127;-78
2022/01/29 02:07:38;;;;;;;26.02;11.70;;;7.70;99.90;;;;;;5069966;28;20051;-78
2022/01/29 02:10:09;;;;;;;21.38;11.00;;;7.70;99.90;;;;;;5046231;28;20033;-78
2022/01/29 02:12:47;;;;;;;24.23;10.60;;;7.70;99.90;;;;;;5064147;28;20060;-78
2022/01/29 02:15:12;;;;;;;;;;;7.60;99.90;;;;;;5056911;28;20044;-77
2022/01/29 02:17:38;;;;;;;21.55;10.63;;;7.70;99.90;;;;;;5039266;28;20000;-78
2022/01/29 02:20:05;;;;;;;23.75;10.10;;;7.70;99.90;;;;;;5052467;28;20036;-78
2022/01/29 02:22:31;;;;;;;21.77;10.63;;;7.70;99.90;;;;;;5036319;28;20110;-77
2022/01/29 02:24:56;;;;;;;19.27;10.27;;;7.70;99.90;;;;;;5052094;28;20045;-78
2022/01/29 02:27:22;;;;;;;26.05;10.77;;;7.70;99.90;;;;;;5032141;28;20048;-77
2022/01/29 02:29:49;;;;;;;22.58;9.82;;;7.80;99.90;;;;;;5076908;28;20554;-76
2022/01/29 02:32:15;;;;;;;30.90;10.43;;;7.80;99.90;;;;;;5046671;28;20250;-77
2022/01/29 02:34:43;;;;;;;23.20;9.68;;;7.90;99.90;;;;;;5069366;28;20063;-76
2022/01/29 02:37:09;;;;;;;20.00;9.75;;;7.90;99.90;;;;;;5059276;28;20824;-77
2022/01/29 02:39:35;;;;;;;22.40;10.20;;;7.90;99.90;;;;;;5062010;28;20056;-76
2022/01/29 02:42:02;;;;;;;22.83;10.15;;;7.90;99.90;;;;;;5046272;28;20044;-76
2022/01/29 02:44:27;;;;;;;;;;;8.00;99.90;;;;;;5062193;28;20045;-76
2022/01/29 02:46:56;;;;;;;22.95;9.98;;;8.00;99.90;;;;;;5085786;28;19978;-77
2022/01/29 02:49:26;;;;;;;22.13;10.43;;;8.00;99.90;;;;;;5066491;28;20037;-77
2022/01/29 02:51:54;;;;;;;22.95;10.50;;;7.90;99.90;;;;;;5071329;28;20045;-76
2022/01/29 02:54:20;;;;;;;24.38;10.23;;;8.00;99.90;;;;;;5062928;28;20040;-77
2022/01/29 02:56:47;;;;;;;24.92;9.85;;;8.10;99.90;;;;;;5066525;28;20047;-77
2022/01/29 02:59:13;;;;;;;21.23;9.85;;;8.00;99.90;;;;;;5060781;28;20053;-77
2022/01/29 03:01:39;;;;;;;18.88;9.32;;;8.00;99.90;;;;;;5059254;28;20055;-77
2022/01/29 03:04:05;;;;;;;;;;;8.10;99.90;;;;;;5058732;28;20037;-77
2022/01/29 03:06:31;;;;;;;21.35;10.30;;;8.10;99.90;;;;;;5062827;28;19924;-77
2022/01/29 03:08:57;;;;;;;26.25;10.63;;;8.20;99.90;;;;;;5051227;28;20066;-77
2022/01/29 03:11:23;;;;;;;21.63;9.23;;;8.20;99.90;;;;;;5044507;28;20169;-77
2022/01/29 03:13:50;;;;;;;23.02;10.45;;;8.20;99.90;;;;;;5042820;28;20056;-78
2022/01/29 03:16:16;;;;;;;19.90;9.25;;;8.10;99.90;;;;;;5061963;28;20040;-78
2022/01/29 03:18:42;;;;;;;22.08;10.00;;;8.20;99.90;;;;;;5054079;28;20165;-77
2022/01/29 03:21:08;;;;;;;25.48;10.15;;;8.20;99.90;;;;;;5052648;28;20517;-77
2022/01/29 03:23:33;;;;;;;24.42;10.15;;;8.20;99.90;;;;;;5055249;28;20126;-77
2022/01/29 03:26:00;;;;;;;26.70;10.63;;;8.20;99.90;;;;;;5055273;28;20044;-77
2022/01/29 03:28:29;;;;;;;24.17;11.52;;;8.20;99.90;;;;;;5064055;28;20044;-77
2022/01/29 03:30:55;;;;;;;21.75;10.25;;;8.20;99.90;;;;;;5052411;28;20040;-77
2022/01/29 03:33:22;;;;;;;19.83;10.20;;;8.20;99.90;;;;;;5071440;28;20436;-77
2022/01/29 03:35:48;;;;;;;21.27;10.02;;;8.30;99.90;;;;;;5062579;28;20045;-77
2022/01/29 03:38:14;;;;;;;21.48;10.73;;;8.30;99.90;;;;;;5062343;28;20056;-77
2022/01/29 03:40:41;;;;;;;21.33;10.32;;;8.20;99.90;;;;;;5053827;28;20040;-77
2022/01/29 03:43:10;;;;;;;;;;;8.20;99.90;;;;;;5054667;28;20056;-77
2022/01/29 03:45:36;;;;;;;24.25;9.80;;;8.30;99.90;;;;;;5046748;28;19955;-77
2022/01/29 03:48:02;;;;;;;20.73;10.82;;;8.20;99.90;;;;;;5056296;28;20072;-77
2022/01/29 03:50:28;;;;;;;23.52;11.30;;;8.30;99.90;;;;;;5039624;28;20504;-78
2022/01/29 03:52:54;;;;;;;19.33;9.32;;;8.30;99.90;;;;;;5065391;28;20138;-77
2022/01/29 03:55:20;;;;;;;21.92;10.55;;;8.30;99.90;;;;;;5063811;28;20400;-77
2022/01/29 03:57:46;;;;;;;22.90;11.02;;;8.30;99.90;;;;;;5062896;28;20138;-77
2022/01/29 04:00:12;;;;;;;21.23;10.00;;;8.30;99.90;;;;;;5065716;28;20088;-77
2022/01/29 04:02:38;;;;;;;24.00;10.95;;;8.40;99.90;;;;;;5070377;28;20223;-77
2022/01/29 04:05:04;;;;;;;21.08;10.32;;;8.30;99.90;;;;;;5063568;28;20124;-77
2022/01/29 04:07:30;;;;;;;20.15;9.80;;;8.30;99.90;;;;;;5071414;28;20599;-77
2022/01/29 04:09:55;;;;;;;25.10;9.98;;;8.30;99.90;;;;;;5056174;28;20135;-77
2022/01/29 04:12:24;;;;;;;21.02;10.15;;;8.40;99.90;;;;;;5071480;28;20485;-77
2022/01/29 04:14:53;;;;;;;20.40;10.02;;;8.40;99.90;;;;;;5043218;28;20519;-78
2022/01/29 04:17:18;;;;;;;21.33;10.35;;;8.40;99.90;;;;;;5067689;28;20044;-77
2022/01/29 04:19:44;;;;;;;22.38;10.68;;;8.40;99.90;;;;;;5071090;28;20056;-77
2022/01/29 04:22:10;;;;;;;21.70;10.63;;;8.40;99.90;;;;;;5071939;28;20047;-77
2022/01/29 04:24:35;;;;;;;19.40;10.88;;;8.50;99.90;;;;;;5056430;28;20051;-77
2022/01/29 04:27:04;;;;;;;19.45;10.38;;;8.50;99.90;;;;;;5071140;28;20523;-77
2022/01/29 04:29:40;;;;;;;22.02;10.75;;;8.40;99.90;;;;;;5057016;28;20084;-78
2022/01/29 04:32:11;;;;;;;18.00;10.30;;;8.40;99.90;;;;;;5061345;28;20032;-78
2022/01/29 04:34:37;;;;;;;22.90;10.13;;;8.40;99.90;;;;;;5051582;28;20060;-77
2022/01/29 04:37:03;;;;;;;23.48;11.43;;;8.50;99.90;;;;;;5051376;28;20053;-77
2022/01/29 04:39:28;;;;;;;23.27;11.50;;;8.50;99.90;;;;;;5070649;28;20059;-77
2022/01/29 04:41:54;;;;;;;20.60;10.40;;;8.50;99.90;;;;;;5038223;28;20056;-77
2022/01/29 04:44:20;;;;;;;20.15;11.65;;;8.50;99.90;;;;;;5052492;28;20132;-77
2022/01/29 04:46:45;;;;;;;20.45;11.07;;;8.60;99.90;;;;;;5051436;28;20072;-75
2022/01/29 04:49:11;;;;;;;24.20;11.27;;;8.50;99.90;;;;;;5072917;28;20127;-76
2022/01/29 04:51:37;;;;;;;19.90;10.23;;;8.60;99.90;;;;;;5067935;28;20368;-76
2022/01/29 04:54:02;;;;;;;16.88;10.77;;;8.60;99.90;;;;;;5040418;28;20047;-76
2022/01/29 04:56:28;;;;;;;18.05;10.05;;;8.60;99.90;;;;;;5062596;28;20037;-76
2022/01/29 04:58:54;;;;;;;18.02;9.73;;;8.60;99.90;;;;;;5059250;28;20080;-76
2022/01/29 05:01:20;;;;;;;16.83;10.13;;;8.60;99.90;;;;;;5055438;28;20063;-77
2022/01/29 05:03:45;;;;;;;19.67;10.40;;;8.60;99.90;;;;;;5034157;28;20071;-76
2022/01/29 05:06:12;;;;;;;22.17;10.73;;;8.60;99.90;;;;;;5043285;28;20501;-77
2022/01/29 05:08:38;;;;;;;20.75;10.52;;;8.60;99.90;;;;;;5062858;28;20451;-77
2022/01/29 05:11:05;;;;;;;18.35;10.00;;;8.60;99.90;;;;;;5071197;28;20040;-77
2022/01/29 05:13:32;;;;;;;19.00;10.40;;;8.60;99.90;;;;;;5071736;28;20055;-77
2022/01/29 05:26:51;;;;;;;16.83;9.70;;;8.60;99.90;;;;;;5063539;28;20102;-76
2022/01/29 05:29:17;;;;;;;20.85;11.05;;;8.60;99.90;;;;;;5062541;28;20044;-76
2022/01/29 05:31:43;;;;;;;19.50;10.63;;;8.60;99.90;;;;;;5059937;28;20055;-76
2022/01/29 05:34:09;;;;;;;19.83;10.27;;;8.70;99.90;;;;;;5071849;28;20051;-76
2022/01/29 05:36:35;;;;;;;21.30;10.85;;;8.70;99.90;;;;;;5064255;28;20037;-77
2022/01/29 05:39:02;;;;;;;18.25;10.68;;;8.60;99.90;;;;;;5052338;28;20496;-77
2022/01/29 05:41:28;;;;;;;16.02;10.15;;;8.60;99.90;;;;;;5045463;28;20115;-77
2022/01/29 05:43:54;;;;;;;19.30;10.30;;;8.70;99.90;;;;;;5058936;28;20141;-75
2022/01/29 05:46:20;;;;;;;20.35;11.05;;;8.70;99.90;;;;;;5060379;28;20048;-77
2022/01/29 05:48:46;;;;;;;22.52;10.70;;;8.70;99.90;;;;;;5064596;28;20123;-78
2022/01/29 05:51:12;;;;;;;17.58;9.95;;;8.70;99.90;;;;;;5065382;28;20033;-78
2022/01/29 05:53:38;;;;;;;20.13;11.15;;;8.70;99.90;;;;;;5067916;28;20447;-77
2022/01/29 05:56:04;;;;;;;19.70;10.95;;;8.70;99.90;;;;;;5067039;28;20036;-77
2022/01/29 05:58:30;;;;;;;17.60;9.93;;;8.70;99.90;;;;;;5066194;28;20452;-77
2022/01/29 06:00:55;;;;;;;20.35;10.45;;;8.70;99.90;;;;;;5043727;28;20101;-77
2022/01/29 06:03:21;;;;;;;22.65;11.10;;;8.70;99.90;;;;;;5069189;28;20051;-78
2022/01/29 06:05:47;;;;;;;19.08;11.07;;;8.80;99.90;;;;;;5053097;28;20041;-78
2022/01/29 06:08:13;;;;;;;21.27;10.98;;;8.80;99.90;;;;;;5058342;28;20253;-78
2022/01/29 06:10:39;;;;;;;16.17;10.63;;;8.80;99.90;;;;;;5061127;28;20041;-78
2022/01/29 06:13:12;;;;;;;23.52;10.82;;;8.70;99.90;;;;;;5035124;28;20049;-78
2022/01/29 06:15:42;;;;;;;19.33;10.38;;;8.80;99.90;;;;;;5055255;28;20055;-77
2022/01/29 06:18:14;;;;;;;20.98;10.68;;;8.80;99.90;;;;;;5057746;28;20036;-77
2022/01/29 06:20:41;;;;;;;24.10;10.95;;;8.80;99.90;;;;;;5069520;28;20578;-77
2022/01/29 06:23:07;;;;;;;15.95;10.25;;;8.70;99.90;;;;;;5107246;28;20119;-77
2022/01/29 06:25:33;;;;;;;17.33;9.68;;;8.80;99.90;;;;;;5053796;28;20072;-77
2022/01/29 06:27:59;;;;;;;15.95;9.35;;;8.80;99.90;;;;;;5074153;28;20689;-77
2022/01/29 06:30:25;;;;;;;20.23;10.35;;;8.80;99.90;;;;;;5059777;28;20048;-78
2022/01/29 06:32:51;;;;;;;17.30;10.30;;;8.80;99.90;;;;;;5053389;28;20033;-77
2022/01/29 06:35:16;;;;;;;19.50;9.90;;;8.90;99.90;;;;;;5072798;28;20127;-78
2022/01/29 06:37:42;;;;;;;15.18;8.90;;;8.80;99.90;;;;;;5053143;28;20041;-77
2022/01/29 06:40:08;;;;;;;20.58;10.38;;;8.80;99.90;;;;;;5065386;28;20037;-78
2022/01/29 06:42:34;;;;;;;;;;;8.90;99.90;;;;;;5058859;28;20449;-78
2022/01/29 06:45:00;;;;;;;15.57;9.32;;;8.80;99.90;;;;;;5064621;28;19917;-78
2022/01/29 06:47:26;;;;;;;19.73;10.32;;;8.90;99.90;;;;;;5070376;28;20447;-78
2022/01/29 06:49:52;;;;;;;16.00;10.40;;;8.80;99.90;;;;;;5074673;28;20447;-78
2022/01/29 06:52:17;;;;;;;17.42;9.48;;;8.90;99.90;;;;;;5069391;28;20124;-78
2022/01/29 06:54:43;;;;;;;14.90;9.30;;;8.80;99.90;;;;;;5059583;28;20040;-78
2022/01/29 06:57:09;;;;;;;15.90;8.93;;;8.80;99.90;;;;;;5038080;28;20045;-78
2022/01/29 06:59:34;;;;;;;17.63;9.80;;;8.80;99.90;;;;;;5068369;28;20092;-78
2022/01/29 07:02:00;;;;;;;17.92;10.00;;;8.70;99.90;;;;;;5072383;28;20036;-78
2022/01/29 07:04:26;;;;;;;15.73;9.57;;;8.80;99.90;;;;;;5071140;28;20033;-78
2022/01/29 07:06:52;;;;;;;15.30;9.80;;;8.80;99.90;;;;;;5069678;28;20041;-78
2022/01/29 07:09:17;;;;;;;18.27;10.27;;;8.70;99.90;;;;;;5072531;28;20040;-78
2022/01/29 07:11:44;;;;;;;15.27;9.50;;;8.80;99.90;;;;;;5050501;28;20051;-76
2022/01/29 07:14:16;;;;;;;17.20;9.63;;;8.80;99.90;;;;;;5072731;28;20056;-78
2022/01/29 07:16:43;;;;;;;16.02;10.13;;;8.80;99.90;;;;;;5060148;28;20132;-78
2022/01/29 07:19:09;;;;;;;18.95;10.70;;;8.80;99.90;;;;;;5067831;28;20123;-78
2022/01/29 07:21:35;;;;;;;16.77;9.50;;;8.80;99.90;;;;;;5070130;28;20421;-78
2022/01/29 07:24:01;;;;;;;17.98;9.65;;;8.80;99.90;;;;;;5068042;28;20087;-78
2022/01/29 07:26:27;;;;;;;14.35;9.65;;;8.80;99.90;;;;;;5038187;28;20061;-78
2022/01/29 07:28:53;;;;;;;16.27;9.43;;;8.80;99.90;;;;;;5072057;28;20455;-78
2022/01/29 07:31:18;;;;;;;16.25;9.15;;;8.90;99.90;;;;;;5065462;28;20040;-79
2022/01/29 07:33:44;;;;;;;13.50;8.65;;;8.80;99.90;;;;;;5077642;28;20045;-78
2022/01/29 07:36:10;;;;;;;12.88;8.00;;;8.80;99.90;;;;;;5061548;28;20056;-78
2022/01/29 07:38:35;;;;;;;15.27;8.80;;;8.80;99.90;;;;;;5048668;28;20102;-78
2022/01/29 07:41:01;;;;;;;15.60;8.27;;;8.80;99.90;;;;;;5059220;28;20123;-78
2022/01/29 07:43:27;;;;;;;13.48;8.25;;;8.80;99.90;;;;;;5050320;28;20500;-77
2022/01/29 07:45:52;;;;;;;13.10;8.18;;;8.80;99.90;;;;;;5065376;28;20489;-76
2022/01/29 07:48:18;;;;;;;14.10;8.43;;;8.80;99.90;;;;;;5073130;28;20035;-76
2022/01/29 07:50:45;;;;;;;15.48;8.75;;;8.90;99.90;;;;;;5072830;28;20548;-78
2022/01/29 07:53:11;;;;;;;15.55;8.30;;;8.80;99.90;;;;;;5055950;28;20041;-77
2022/01/29 07:55:36;;;;;;;15.07;8.45;;;8.80;99.90;;;;;;5071879;28;20052;-77
2022/01/29 07:58:02;;;;;;;17.63;8.38;;;8.80;99.90;;;;;;5069986;28;20071;-77
2022/01/29 08:00:29;;;;;;;14.75;8.07;;;8.70;99.90;;;;;;5054653;28;20477;-77
2022/01/29 08:02:54;;;;;;;15.90;7.97;;;8.80;99.90;;;;;;5067219;28;20511;-77
2022/01/29 08:05:20;;;;;;;17.45;8.13;;;8.80;99.90;;;;;;5044378;28;20036;-77
2022/01/29 08:07:46;;;;;;;13.95;7.85;;;8.80;99.90;;;;;;5044589;28;20036;-76
2022/01/29 08:10:12;;;;;;;13.45;7.35;;;8.90;99.90;;;;;;5063116;28;20095;-77
2022/01/29 08:12:38;;;;;;;16.95;7.63;;;8.90;99.90;;;;;;5062187;28;20040;-74
2022/01/29 08:15:04;;;;;;;13.98;7.40;;;8.90;99.90;;;;;;5064062;28;20040;-75
2022/01/29 08:17:30;;;;;;;13.55;6.43;;;9.00;99.90;;;;;;5063950;28;20070;-75
2022/01/29 08:19:57;;;;;;;13.75;7.47;;;8.90;99.90;;;;;;5068974;28;20072;-75
2022/01/29 08:22:24;;;;;;;14.40;6.90;;;9.00;99.90;;;;;;5064696;28;20048;-75
2022/01/29 08:24:52;;;;;;;12.30;6.93;;;9.10;99.90;;;;;;5050023;28;20052;-75
2022/01/29 08:27:18;;;;;;;11.60;6.38;;;9.00;99.90;;;;;;5065074;28;20112;-74
2022/01/29 08:29:44;;;;;;;17.48;7.03;;;9.00;99.90;;;;;;5065968;28;20036;-74
2022/01/29 08:32:10;;;;;;;13.50;6.15;;;9.10;99.90;;;;;;5067573;28;20037;-74
2022/01/29 08:34:35;;;;;;;11.05;6.05;;;9.20;99.90;;;;;;5064267;28;20040;-74
2022/01/29 08:37:03;;;;;;;14.98;6.63;;;9.20;99.90;;;;;;5065803;28;20044;-74
2022/01/29 08:39:29;;;;;;;15.82;6.20;;;9.20;99.90;;;;;;5062297;28;20052;-77
2022/01/29 08:41:55;;;;;;;15.52;5.95;;;9.30;99.90;;;;;;5050636;28;20048;-77
2022/01/29 08:44:21;;;;;;;11.13;5.65;;;9.30;99.90;;;;;;5056841;28;20392;-78
2022/01/29 08:46:47;;;;;;;10.88;5.57;;;9.30;99.90;;;;;;5044567;28;20484;-77
2022/01/29 08:49:13;;;;;;;8.52;5.00;;;9.30;99.90;;;;;;5070827;28;20043;-75
2022/01/29 08:51:39;;;;;;;9.35;5.15;;;9.40;99.90;;;;;;5070904;28;20041;-76
2022/01/29 08:54:05;;;;;;;13.65;5.93;;;9.50;99.90;;;;;;5066563;28;20052;-76
2022/01/29 08:56:31;;;;;;;9.60;4.72;;;9.40;99.90;;;;;;5040345;28;20048;-80
2022/01/29 08:58:56;;;;;;;15.27;5.20;;;9.50;99.90;;;;;;5068133;28;20046;-78
2022/01/29 09:01:22;;;;;;;10.93;4.70;;;9.50;99.90;;;;;;5062769;28;20421;-77
2022/01/29 09:03:48;;;;;;;9.93;4.97;;;9.50;99.90;;;;;;5054822;28;20044;-77
2022/01/29 09:06:14;;;;;;;10.85;4.75;;;9.60;99.90;;;;;;5060539;28;20051;-78
2022/01/29 09:08:40;;;;;;;9.60;4.32;;;9.60;99.90;;;;;;5051372;28;20382;-77
2022/01/29 09:11:06;;;;;;;;;;;9.60;99.90;;;;;;5063600;28;20059;-76
2022/01/29 09:13:32;;;;;;;12.68;4.75;;;9.60;99.90;;;;;;5039559;28;19927;-81
2022/01/29 09:15:58;;;;;;;7.43;3.97;;;9.70;99.90;;;;;;5065391;28;20036;-78
2022/01/29 09:18:25;;;;;;;9.90;3.90;;;9.70;99.90;;;;;;5045182;28;20055;-80
2022/01/29 09:20:50;;;;;;;;;;;9.70;99.90;;;;;;5064220;28;20101;-80
2022/01/29 09:23:16;;;;;;;7.97;3.75;;;9.70;99.90;;;;;;5104654;28;19916;-78
2022/01/29 09:25:42;;;;;;;9.45;3.95;;;9.70;99.90;;;;;;5065489;28;20136;-78
2022/01/29 09:28:10;;;;;;;7.97;3.95;;;9.70;99.90;;;;;;5057976;28;20040;-78
2022/01/29 09:30:36;;;;;;;9.35;3.58;;;9.80;99.90;;;;;;5047661;28;20040;-78
2022/01/29 09:33:03;;;;;;;8.52;3.95;;;9.70;99.90;;;;;;5046146;28;20502;-79
2022/01/29 09:35:29;;;;;;;7.18;3.08;;;9.80;99.90;;;;;;5071422;28;20111;-79
2022/01/29 09:37:55;;;;;;;10.32;3.63;;;9.80;99.90;;;;;;5037556;28;20051;-79
2022/01/29 09:40:21;;;;;;;8.45;3.35;;;9.80;99.90;;;;;;5054592;28;20174;-79
2022/01/29 09:42:50;;;;;;;9.32;3.50;;;9.90;99.90;;;;;;5063748;28;20143;-75
2022/01/29 09:45:18;;;;;;;9.68;2.92;;;9.80;99.90;;;;;;5069363;28;20051;-79
2022/01/29 09:47:45;;;;;;;7.82;2.92;;;9.90;99.90;;;;;;5064666;28;20144;-78
2022/01/29 09:50:13;;;;;;;7.88;3.30;;;9.80;99.90;;;;;;5058220;28;20040;-76
2022/01/29 09:52:39;;;;;;;8.00;3.05;;;9.90;99.90;;;;;;5069958;28;20037;-75
2022/01/29 09:55:06;;;;;;;8.70;3.20;;;9.90;99.90;;;;;;5100060;28;20553;-75
2022/01/29 09:57:32;;;;;;;6.95;2.55;;;9.90;99.90;;;;;;5070994;28;20086;-75
2022/01/29 09:59:58;;;;;;;8.48;2.67;;;9.90;99.90;;;;;;5048169;28;20088;-75
2022/01/29 10:02:24;;;;;;;8.27;3.00;;;9.90;99.90;;;;;;5062991;28;20090;-75
2022/01/29 10:04:55;;;;;;;9.68;2.80;;;10.00;99.90;;;;;;5072763;28;20124;-75
2022/01/29 10:07:25;;;;;;;8.55;2.78;;;10.00;99.90;;;;;;5081896;28;20044;-80
2022/01/29 10:09:51;;;;;;;7.93;2.88;;;10.10;99.90;;;;;;5066827;28;20509;-78
2022/01/29 10:12:30;;;;;;;11.10;2.75;;;10.10;99.90;;;;;;5073990;28;20105;-79
2022/01/29 10:15:03;;;;;;;8.20;2.58;;;10.10;99.90;;;;;;5052368;28;20036;-78
2022/01/29 10:17:50;;;;;;;10.27;3.00;;;10.00;99.90;;;;;;5069898;28;20037;-80
2022/01/29 10:20:18;;;;;;;8.30;2.40;;;10.00;99.90;;;;;;5050237;28;20124;-78
2022/01/29 10:22:46;;;;;;;6.70;2.13;;;10.00;99.90;;;;;;5051595;28;20059;-79
2022/01/29 10:25:25;;;;;;;10.65;2.53;;;10.00;99.90;;;;;;5102604;28;20162;-76
2022/01/29 10:28:20;;;;;;;8.23;2.42;;;10.00;99.90;;;;;;5095206;28;20041;-76
2022/01/29 10:30:49;;;;;;;6.50;2.13;;;10.00;99.90;;;;;;5052641;28;20044;-76
2022/01/29 10:33:36;;;;;;;8.40;2.30;;;10.10;99.90;;;;;;5072984;28;20107;-76
2022/01/29 10:36:04;;;;;;;12.27;2.25;;;10.10;99.90;;;;;;5066412;28;20070;-77
2022/01/29 10:38:55;;;;;;;8.90;2.33;;;10.20;99.90;;;;;;5081074;28;20126;-76
2022/01/29 10:41:30;;;;;;;9.98;2.20;;;10.20;99.90;;;;;;5070008;28;20119;-75
2022/01/29 10:44:21;;;;;;;9.25;2.30;;;10.30;99.90;;;;;;5070996;28;20048;-74
2022/01/29 10:46:54;;;;;;;9.15;2.10;;;10.20;99.90;;;;;;5070964;28;20044;-75
2022/01/29 10:49:26;;;;;;;7.00;1.83;;;10.20;99.90;;;;;;5066988;28;20043;-75
2022/01/29 10:52:10;;;;;;;9.05;1.98;;;10.20;99.90;;;;;;5076463;28;20132;-75
2022/01/29 10:54:38;;;;;;;6.55;1.80;;;10.20;99.90;;;;;;5060419;28;20049;-75
2022/01/29 10:57:08;;;;;;;9.63;2.10;;;10.30;99.90;;;;;;5068634;28;20340;-74
2022/01/29 10:59:45;;;;;;;7.68;1.70;;;10.30;99.90;;;;;;5061227;28;20056;-74
2022/01/29 11:02:12;;;;;;;7.05;2.20;;;10.20;99.90;;;;;;5072357;28;20144;-74
2022/01/29 11:04:39;;;;;;;7.90;2.00;;;10.20;99.90;;;;;;5065937;28;20044;-74
2022/01/29 11:07:11;;;;;;;7.35;1.80;;;10.30;99.90;;;;;;5038902;28;20072;-74
2022/01/29 11:09:41;;;;;;;8.32;1.90;;;10.30;99.90;;;;;;5050299;28;20124;-74
2022/01/29 11:12:09;;;;;;;5.28;1.63;;;10.20;99.90;;;;;;5068859;28;20043;-74
2022/01/29 11:14:35;;;;;;;5.32;1.60;;;10.30;99.90;;;;;;5069348;28;20091;-75
2022/01/29 11:17:02;;;;;;;;;;;10.30;99.90;;;;;;5062575;28;20868;-75
2022/01/29 11:19:28;;;;;;;7.07;1.90;;;10.30;99.90;;;;;;5070912;28;19978;-75
2022/01/29 11:21:57;;;;;;;13.65;2.97;;;10.30;99.90;;;;;;5063802;28;20414;-75
2022/01/29 11:24:25;;;;;;;10.52;2.10;;;10.30;99.90;;;;;;5064157;28;20051;-75
2022/01/29 11:26:51;;;;;;;7.25;2.00;;;10.30;99.90;;;;;;5067742;28;20072;-76
2022/01/29 11:29:33;;;;;;;8.35;2.35;;;10.40;99.90;;;;;;5054752;28;20067;-76
2022/01/29 11:32:21;;;;;;;8.32;2.00;;;10.30;99.90;;;;;;5065711;28;20120;-76
2022/01/29 11:35:03;;;;;;;7.40;1.77;;;10.40;99.90;;;;;;5090989;28;20041;-75
2022/01/29 11:37:59;;;;;;;9.20;1.77;;;10.40;99.90;;;;;;5063134;28;20044;-75
2022/01/29 11:40:26;;;;;;;9.55;2.20;;;10.40;99.90;;;;;;5090818;28;20056;-76
2022/01/29 11:42:53;;;;;;;6.55;2.22;;;10.40;99.90;;;;;;5070772;28;20503;-76
2022/01/29 11:46:04;;;;;;;7.72;2.00;;;10.40;99.90;;;;;;5054563;28;20112;-76
2022/01/29 11:48:35;;;;;;;5.53;1.63;;;10.50;99.90;;;;;;5061158;28;20074;-75
2022/01/29 11:51:02;;;;;;;7.65;1.73;;;10.50;99.90;;;;;;5061814;28;20051;-76
2022/01/29 11:53:48;;;;;;;6.88;1.63;;;10.60;99.90;;;;;;5064535;28;20055;-75
2022/01/29 11:56:32;;;;;;;7.13;1.77;;;10.60;99.90;;;;;;5065770;28;20052;-74
2022/01/29 11:59:20;;;;;;;8.38;1.83;;;10.60;99.90;;;;;;5063232;28;20391;-75
2022/01/29 12:01:52;;;;;;;8.85;2.13;;;10.60;99.90;;;;;;5076754;28;20486;-74
2022/01/29 12:04:19;;;;;;;6.00;1.58;;;10.60;99.90;;;;;;5052601;28;20076;-74
2022/01/29 12:07:10;;;;;;;8.00;2.33;;;10.70;99.90;;;;;;5065907;28;20443;-74
2022/01/29 12:09:47;;;;;;;9.18;1.73;;;10.80;99.90;;;;;;5045476;28;20041;-75
2022/01/29 12:12:25;;;;;;;7.30;1.60;;;10.80;99.90;;;;;;5064100;28;20101;-75
2022/01/29 12:14:56;;;;;;;7.03;1.48;;;10.70;99.90;;;;;;5045650;28;20083;-79
2022/01/29 12:17:57;;;;;;;6.88;1.67;;;10.80;99.90;;;;;;5042440;28;20036;-74
2022/01/29 12:20:25;;;;;;;9.25;2.10;;;10.90;99.90;;;;;;5053895;28;20380;-73
2022/01/29 12:22:57;;;;;;;10.50;1.85;;;11.00;99.90;;;;;;5067914;28;20329;-74
2022/01/29 12:25:26;;;;;;;8.70;1.80;;;11.00;99.90;;;;;;5046503;28;20037;-77
2022/01/29 12:27:55;;;;;;;9.27;1.63;;;11.00;99.90;;;;;;5066031;28;20474;-72
2022/01/29 12:30:28;;;;;;;10.70;1.63;;;11.00;99.90;;;;;;5060494;28;20044;-75
2022/01/29 12:33:03;;;;;;;6.00;1.50;;;10.90;99.90;;;;;;5065849;28;20120;-76
2022/01/29 12:35:32;;;;;;;9.52;1.90;;;11.10;99.90;;;;;;5074234;28;20037;-76
2022/01/29 12:37:57;;;;;;;5.63;1.40;;;11.10;99.90;;;;;;5060687;28;20052;-74
2022/01/29 12:40:25;;;;;;;6.68;1.67;;;11.00;99.90;;;;;;5076711;28;20044;-75
2022/01/29 12:42:59;;;;;;;10.60;1.83;;;11.00;99.90;;;;;;5062851;28;20056;-75
2022/01/29 12:45:27;;;;;;;10.35;1.80;;;11.00;99.90;;;;;;5048910;28;20063;-77
2022/01/29 12:48:13;;;;;;;7.85;1.88;;;11.00;99.90;;;;;;5069587;28;20036;-76
2022/01/29 12:50:41;;;;;;;11.40;2.08;;;11.00;99.90;;;;;;5062887;28;20045;-75
2022/01/29 12:53:19;;;;;;;11.77;2.13;;;11.00;99.90;;;;;;5064663;28;20033;-75
2022/01/29 12:56:05;;;;;;;14.07;2.15;;;11.10;99.90;;;;;;5069645;28;20053;-76
2022/01/29 12:58:40;;;;;;;11.45;2.28;;;11.10;99.90;;;;;;5062820;28;20162;-77
2022/01/29 13:01:11;;;;;;;9.70;2.17;;;11.20;99.90;;;;;;5067108;28;20071;-76
2022/01/29 13:03:38;;;;;;;6.65;2.17;;;11.10;99.90;;;;;;5061843;28;20098;-76